createdAt,value
2023-01-11T00:01:10.667Z,100692.60
2023-01-11T00:03:38.606Z,100684.04
2023-01-11T00:06:08.314Z,100678.90
2023-01-11T00:08:37.517Z,100683.52
2023-01-11T00:11:10.930Z,100682.84
2023-01-11T00:13:38.880Z,100684.71
2023-01-11T00:16:07.940Z,100686.27
2023-01-11T00:18:36.801Z,100687.45
2023-01-11T00:21:06.170Z,100691.58
2023-01-11T00:23:36.303Z,100696.70
2023-01-11T00:26:10.366Z,100699.10
2023-01-11T00:28:38.259Z,100702.35
2023-01-11T00:31:06.298Z,100704.75
2023-01-11T00:33:34.909Z,100700.12
2023-01-11T00:36:02.923Z,100704.39
2023-01-11T00:38:49.261Z,100701.66
2023-01-11T00:41:37.022Z,100703.88
2023-01-11T00:44:24.691Z,100710.73
2023-01-11T00:47:11.288Z,100718.77
2023-01-11T00:49:39.435Z,100721.50
2023-01-11T00:52:09.410Z,100721.15
2023-01-11T00:54:39.994Z,100723.55
2023-01-11T00:57:09.401Z,100718.08
2023-01-11T00:59:39.711Z,100714.15
2023-01-11T01:02:09.772Z,100719.29
2023-01-11T01:04:38.815Z,100718.27
2023-01-11T01:07:07.784Z,100724.60
2023-01-11T01:09:36.204Z,100730.26
2023-01-11T01:12:07.023Z,100735.39
2023-01-11T01:14:36.146Z,100740.38
2023-01-11T01:17:07.759Z,100739.69
2023-01-11T01:19:38.429Z,100734.55
2023-01-11T01:22:06.628Z,100735.06
2023-01-11T01:24:34.756Z,100735.22
2023-01-11T01:27:02.790Z,100735.73
2023-01-11T01:29:30.717Z,100737.13
2023-01-11T01:31:58.642Z,100731.12
2023-01-11T01:34:26.590Z,100731.30
2023-01-11T01:36:54.710Z,100731.30
2023-01-11T01:39:23.054Z,100735.92
2023-01-11T01:41:50.977Z,100736.27
2023-01-11T01:44:56.713Z,100733.18
2023-01-11T01:47:49.536Z,100732.84
2023-01-11T01:50:36.468Z,100737.63
2023-01-11T01:53:14.767Z,100740.20
2023-01-11T01:55:48.928Z,100736.60
2023-01-11T01:58:21.561Z,100735.07
2023-01-11T02:00:49.419Z,100735.76
2023-01-11T02:03:26.935Z,100732.15
2023-01-11T02:05:55.030Z,100735.40
2023-01-11T02:08:47.732Z,100733.19
2023-01-11T02:11:29.915Z,100730.62
2023-01-11T02:14:12.859Z,100727.71
2023-01-11T02:16:40.883Z,100728.74
2023-01-11T02:19:14.863Z,100728.39
2023-01-11T02:22:08.095Z,100729.25
2023-01-11T02:25:14.509Z,100730.29
2023-01-11T02:28:15.812Z,100727.54
2023-01-11T02:30:43.546Z,100722.75
2023-01-11T02:33:21.993Z,100721.73
2023-01-11T02:36:09.099Z,100726.35
2023-01-11T02:38:53.883Z,100724.46
2023-01-11T02:41:52.054Z,100725.49
2023-01-11T02:44:51.699Z,100727.20
2023-01-11T02:47:29.113Z,100729.10
2023-01-11T02:50:04.787Z,100728.56
2023-01-11T02:52:39.412Z,100729.42
2023-01-11T02:55:11.716Z,100730.80
2023-01-11T02:57:42.958Z,100729.77
2023-01-11T03:00:12.919Z,100734.05
2023-01-11T03:02:40.787Z,100730.45
2023-01-11T03:05:14.392Z,100728.75
2023-01-11T03:08:08.452Z,100727.04
2023-01-11T03:10:55.210Z,100725.32
2023-01-11T03:13:41.091Z,100719.66
2023-01-11T03:16:23.563Z,100719.66
2023-01-11T03:19:33.028Z,100727.88
2023-01-11T03:22:10.110Z,100729.41
2023-01-11T03:24:46.189Z,100728.23
2023-01-11T03:27:43.051Z,100722.73
2023-01-11T03:30:15.917Z,100724.29
2023-01-11T03:32:49.004Z,100726.00
2023-01-11T03:35:21.517Z,100724.12
2023-01-11T03:38:02.175Z,100720.53
2023-01-11T03:40:47.103Z,100714.86
2023-01-11T03:43:19.593Z,100714.88
2023-01-11T03:45:53.919Z,100715.90
2023-01-11T03:48:31.612Z,100710.08
2023-01-11T03:51:01.888Z,100712.14
2023-01-11T03:53:33.007Z,100711.79
2023-01-11T03:56:03.282Z,100710.08
2023-01-11T03:58:31.264Z,100706.48
2023-01-11T04:01:00.087Z,100708.71
2023-01-11T04:03:28.536Z,100710.77
2023-01-11T04:06:02.437Z,100713.33
2023-01-11T04:08:31.463Z,100712.31
2023-01-11T04:10:59.811Z,100713.67
2023-01-11T04:13:27.720Z,100715.38
2023-01-11T04:15:55.710Z,100718.47
2023-01-11T04:18:23.684Z,100728.40
2023-01-11T04:20:51.426Z,100727.21
2023-01-11T04:23:19.562Z,100723.95
2023-01-11T04:25:47.822Z,100727.02
2023-01-11T04:28:15.825Z,100723.60
2023-01-11T04:30:43.629Z,100720.17
2023-01-11T04:33:13.491Z,100715.55
2023-01-11T04:35:42.261Z,100712.83
2023-01-11T04:38:10.101Z,100712.65
2023-01-11T04:40:37.996Z,100711.45
2023-01-11T04:43:05.880Z,100709.04
2023-01-11T04:45:33.881Z,100710.93
2023-01-11T04:48:01.807Z,100704.77
2023-01-11T04:50:29.773Z,100708.19
2023-01-11T04:53:00.232Z,100709.56
2023-01-11T04:55:28.072Z,100709.38
2023-01-11T04:57:56.339Z,100710.42
2023-01-11T05:00:24.471Z,100714.67
2023-01-11T05:02:52.381Z,100714.69
2023-01-11T05:05:20.571Z,100721.19
2023-01-11T05:07:48.924Z,100720.86
2023-01-11T05:10:17.093Z,100723.75
2023-01-11T05:12:47.027Z,100722.55
2023-01-11T05:15:14.981Z,100722.04
2023-01-11T05:17:42.875Z,100722.55
2023-01-11T05:20:11.747Z,100724.77
2023-01-11T05:22:39.641Z,100723.42
2023-01-11T05:25:08.194Z,100722.55
2023-01-11T05:27:36.050Z,100722.88
2023-01-11T05:30:04.698Z,100723.41
2023-01-11T05:32:32.633Z,100719.45
2023-01-11T05:35:00.387Z,100718.44
2023-01-11T05:37:29.870Z,100716.38
2023-01-11T05:39:57.642Z,100713.11
2023-01-11T05:42:25.440Z,100708.15
2023-01-11T05:45:11.895Z,100710.19
2023-01-11T05:47:39.866Z,100715.48
2023-01-11T05:50:08.833Z,100712.24
2023-01-11T05:52:37.251Z,100712.59
2023-01-11T05:55:06.060Z,100706.09
2023-01-11T05:57:33.971Z,100701.46
2023-01-11T06:00:02.356Z,100700.44
2023-01-11T06:02:35.557Z,100696.16
2023-01-11T06:05:04.762Z,100692.05
2023-01-11T06:07:32.589Z,100693.24
2023-01-11T06:10:00.542Z,100694.95
2023-01-11T06:12:28.480Z,100695.80
2023-01-11T06:14:56.432Z,100689.14
2023-01-11T06:17:24.256Z,100689.66
2023-01-11T06:19:52.082Z,100689.15
2023-01-11T06:22:20.032Z,100689.31
2023-01-11T06:24:48.033Z,100691.18
2023-01-11T06:27:17.563Z,100701.10
2023-01-11T06:29:45.596Z,100702.96
2023-01-11T06:32:13.406Z,100703.48
2023-01-11T06:34:41.198Z,100705.71
2023-01-11T06:37:09.025Z,100701.79
2023-01-11T06:39:36.937Z,100703.16
2023-01-11T06:42:04.811Z,100703.00
2023-01-11T06:44:32.660Z,100702.15
2023-01-11T06:47:00.494Z,100693.41
2023-01-11T06:49:28.403Z,100689.64
2023-01-11T06:51:56.358Z,100690.16
2023-01-11T06:54:25.686Z,100691.02
2023-01-11T06:56:53.543Z,100688.44
2023-01-11T06:59:21.426Z,100688.78
2023-01-11T07:01:49.368Z,100689.30
2023-01-11T07:04:18.770Z,100692.21
2023-01-11T07:06:46.657Z,100698.04
2023-01-11T07:09:14.711Z,100698.38
2023-01-11T07:11:42.594Z,100698.55
2023-01-11T07:14:12.297Z,100698.73
2023-01-11T07:16:40.163Z,100696.65
2023-01-11T07:19:08.448Z,100693.41
2023-01-11T07:21:36.397Z,100693.07
2023-01-11T07:24:05.259Z,100695.65
2023-01-11T07:26:33.348Z,100698.39
2023-01-11T07:29:01.229Z,100694.13
2023-01-11T07:31:29.031Z,100692.73
2023-01-11T07:33:57.020Z,100693.77
2023-01-11T07:36:24.846Z,100686.92
2023-01-11T07:38:53.000Z,100689.31
2023-01-11T07:41:39.695Z,100685.90
2023-01-11T07:44:10.819Z,100682.98
2023-01-11T07:46:38.824Z,100686.05
2023-01-11T07:49:06.761Z,100688.81
2023-01-11T07:51:34.977Z,100689.84
2023-01-11T07:54:03.958Z,100689.32
2023-01-11T07:56:32.183Z,100687.45
2023-01-11T07:59:00.003Z,100687.29
2023-01-11T08:01:28.063Z,100684.55
2023-01-11T08:03:55.893Z,100686.10
2023-01-11T08:06:23.898Z,100684.73
2023-01-11T08:08:51.789Z,100685.92
2023-01-11T08:11:38.477Z,100682.84
2023-01-11T08:14:24.985Z,100683.88
2023-01-11T08:16:52.792Z,100682.84
2023-01-11T08:19:20.709Z,100684.90
2023-01-11T08:21:50.424Z,100680.60
2023-01-11T08:24:18.385Z,100680.79
2023-01-11T08:26:46.682Z,100680.27
2023-01-11T08:29:15.601Z,100677.17
2023-01-11T08:31:44.963Z,100682.31
2023-01-11T08:34:13.198Z,100680.95
2023-01-11T08:36:41.537Z,100680.79
2023-01-11T08:39:09.996Z,100674.63
2023-01-11T08:41:39.226Z,100675.48
2023-01-11T08:44:09.312Z,100678.58
2023-01-11T08:46:38.225Z,100679.10
2023-01-11T08:49:12.221Z,100677.20
2023-01-11T08:51:41.378Z,100682.86
2023-01-11T08:54:14.717Z,100680.63
2023-01-11T08:56:42.803Z,100679.95
2023-01-11T08:59:11.559Z,100684.91
2023-01-11T09:01:39.899Z,100681.99
2023-01-11T09:04:19.354Z,100686.11
2023-01-11T09:06:53.196Z,100684.57
2023-01-11T09:09:21.030Z,100676.35
2023-01-11T09:11:54.817Z,100673.77
2023-01-11T09:14:24.896Z,100670.50
2023-01-11T09:16:53.859Z,100670.00
2023-01-11T09:19:22.321Z,100662.96
2023-01-11T09:21:51.340Z,100664.34
2023-01-11T09:24:19.265Z,100662.11
2023-01-11T09:26:47.145Z,100662.79
2023-01-11T09:29:15.045Z,100662.77
2023-01-11T09:31:43.028Z,100653.53
2023-01-11T09:34:12.795Z,100649.58
2023-01-11T09:36:41.366Z,100657.28
2023-01-11T09:39:14.625Z,100656.92
2023-01-11T09:42:02.078Z,100648.02
2023-01-11T09:44:31.041Z,100644.23
2023-01-11T09:47:14.371Z,100642.52
2023-01-11T09:49:49.576Z,100646.30
2023-01-11T09:52:30.133Z,100639.61
2023-01-11T09:54:59.624Z,100638.23
2023-01-11T09:57:40.030Z,100634.95
2023-01-11T10:00:51.334Z,100633.04
2023-01-11T10:03:54.537Z,100632.67
2023-01-11T10:06:44.322Z,100626.20
2023-01-11T10:18:22.196Z,100623.64
2023-01-11T10:19:25.738Z,100621.21
2023-01-11T10:21:54.600Z,100619.85
2023-01-11T10:24:27.297Z,100617.93
2023-01-11T10:27:04.053Z,100618.80
2023-01-11T10:30:04.885Z,100617.93
2023-01-11T10:32:47.385Z,100609.15
2023-01-11T10:35:59.202Z,100607.92
2023-01-11T10:38:52.928Z,100610.69
2023-01-11T10:41:34.102Z,100613.09
2023-01-11T10:44:19.299Z,100607.10
2023-01-11T10:46:52.612Z,100605.05
2023-01-11T10:49:30.549Z,100602.13
2023-01-11T10:52:06.321Z,100599.89
2023-01-11T10:54:37.248Z,100604.20
2023-01-11T10:57:14.416Z,100605.56
2023-01-11T11:00:04.737Z,100601.79
2023-01-11T11:02:57.428Z,100594.40
2023-01-11T11:05:59.541Z,100595.27
2023-01-11T11:08:50.802Z,100593.05
2023-01-11T11:11:30.645Z,100584.49
2023-01-11T11:14:24.556Z,100576.91
2023-01-11T11:16:59.374Z,100575.36
2023-01-11T11:19:32.333Z,100565.72
2023-01-11T11:22:00.557Z,100562.63
2023-01-11T11:25:02.326Z,100556.10
2023-01-11T11:27:38.604Z,100546.73
2023-01-11T11:30:11.313Z,100543.95
2023-01-11T11:32:44.430Z,100535.57
2023-01-11T11:35:41.367Z,100530.39
2023-01-11T11:38:22.784Z,100520.02
2023-01-11T11:41:08.457Z,100511.29
2023-01-11T11:44:08.955Z,100507.66
2023-01-11T11:46:36.932Z,100507.64
2023-01-11T11:49:15.959Z,100502.70
2023-01-11T11:51:47.107Z,100502.34
2023-01-11T11:54:28.201Z,100499.79
2023-01-11T11:56:59.026Z,100500.98
2023-01-11T11:59:30.474Z,100497.05
2023-01-11T12:02:03.702Z,100493.33
2023-01-11T12:04:48.671Z,100490.77
2023-01-11T12:07:20.570Z,100490.21
2023-01-11T12:10:02.329Z,100492.41
2023-01-11T12:12:33.649Z,100497.08
2023-01-11T12:15:19.807Z,100498.09
2023-01-11T12:17:48.637Z,100497.02
2023-01-11T12:20:22.597Z,100494.21
2023-01-11T12:23:09.026Z,100496.38
2023-01-11T12:25:41.896Z,100491.55
2023-01-11T12:28:28.401Z,100489.01
2023-01-11T12:30:56.133Z,100486.98
2023-01-11T12:33:31.215Z,100479.09
2023-01-11T12:36:24.343Z,100475.27
2023-01-11T12:39:09.943Z,100470.64
2023-01-11T12:41:50.404Z,100459.37
2023-01-11T12:44:30.869Z,100456.87
2023-01-11T12:47:22.946Z,100447.80
2023-01-11T12:50:03.049Z,100441.66
2023-01-11T12:52:39.417Z,100441.15
2023-01-11T12:55:30.327Z,100445.77
2023-01-11T12:58:14.259Z,100444.92
2023-01-11T13:01:27.981Z,100438.04
2023-01-11T13:03:59.063Z,100428.13
2023-01-11T13:06:42.363Z,100427.86
2023-01-11T13:09:29.633Z,100427.00
2023-01-11T13:12:27.295Z,100428.27
2023-01-11T13:15:07.169Z,100431.70
2023-01-11T13:17:53.211Z,100430.38
2023-01-11T13:20:58.654Z,100430.20
2023-01-11T13:23:46.691Z,100422.81
2023-01-11T13:26:20.530Z,100427.11
2023-01-11T13:28:59.623Z,100429.34
2023-01-11T13:31:28.417Z,100431.76
2023-01-11T13:34:35.676Z,100431.95
2023-01-11T13:37:12.845Z,100430.45
2023-01-11T13:39:54.104Z,100424.00
2023-01-11T13:42:28.090Z,100420.25
2023-01-11T13:45:06.839Z,100414.45
2023-01-11T13:47:47.371Z,100412.56
2023-01-11T13:50:32.138Z,100417.19
2023-01-11T13:53:10.649Z,100410.20
2023-01-11T13:55:57.569Z,100406.30
2023-01-11T13:58:37.103Z,100407.72
2023-01-11T14:01:13.313Z,100404.35
2023-01-11T14:03:53.509Z,100398.56
2023-01-11T14:06:42.193Z,100404.59
2023-01-11T14:09:19.480Z,100408.02
2023-01-11T14:12:09.200Z,100407.33
2023-01-11T14:14:52.971Z,100405.77
2023-01-11T14:17:24.060Z,100404.21
2023-01-11T14:20:31.343Z,100404.23
2023-01-11T14:23:11.988Z,100396.52
2023-01-11T14:25:46.387Z,100396.39
2023-01-11T14:28:23.277Z,100397.44
2023-01-11T14:31:06.722Z,100397.45
2023-01-11T14:33:49.000Z,100394.76
2023-01-11T14:36:43.962Z,100395.83
2023-01-11T14:39:50.404Z,100395.32
2023-01-11T14:43:02.984Z,100389.69
2023-01-11T14:46:19.465Z,100379.09
2023-01-11T14:49:32.465Z,100378.23
2023-01-11T14:52:31.116Z,100370.91
2023-01-11T14:55:16.550Z,100372.09
2023-01-11T14:58:01.768Z,100367.31
2023-01-11T15:00:29.685Z,100361.84
2023-01-11T15:03:00.408Z,100361.50
2023-01-11T15:05:31.617Z,100358.24
2023-01-11T15:08:14.749Z,100354.64
2023-01-11T15:11:04.299Z,100358.91
2023-01-11T15:13:43.250Z,100357.70
2023-01-11T15:16:45.422Z,100353.41
2023-01-11T15:19:35.720Z,100351.20
2023-01-11T15:22:06.202Z,100352.91
2023-01-11T15:24:42.188Z,100350.34
2023-01-11T15:27:37.353Z,100343.33
2023-01-11T15:30:08.556Z,100340.08
2023-01-11T15:32:36.925Z,100337.67
2023-01-11T15:35:23.093Z,100332.36
2023-01-11T15:37:58.873Z,100335.44
2023-01-11T15:40:31.874Z,100333.91
2023-01-11T15:43:12.197Z,100326.40
2023-01-11T15:46:13.997Z,100325.02
2023-01-11T15:49:07.936Z,100325.69
2023-01-11T15:51:45.331Z,100324.31
2023-01-11T15:54:31.776Z,100326.88
2023-01-11T15:57:17.682Z,100324.64
2023-01-11T16:00:23.905Z,100324.98
2023-01-11T16:03:22.776Z,100329.77
2023-01-11T16:06:02.933Z,100327.20
2023-01-11T16:08:53.757Z,100322.58
2023-01-11T16:11:31.237Z,100314.02
2023-01-11T16:14:07.994Z,100311.96
2023-01-11T16:16:41.613Z,100309.55
2023-01-11T16:19:20.024Z,100308.67
2023-01-11T16:21:51.668Z,100310.89
2023-01-11T16:24:25.409Z,100310.04
2023-01-11T16:26:57.090Z,100311.22
2023-01-11T16:29:29.555Z,100314.29
2023-01-11T16:32:04.639Z,100318.38
2023-01-11T16:34:41.833Z,100315.13
2023-01-11T16:37:28.600Z,100314.25
2023-01-11T16:40:35.541Z,100317.85
2023-01-11T16:43:16.484Z,100313.20
2023-01-11T16:45:56.653Z,100310.27
2023-01-11T16:48:26.890Z,100306.83
2023-01-11T16:51:03.848Z,100302.38
2023-01-11T16:53:33.910Z,100305.11
2023-01-11T16:56:07.113Z,100301.17
2023-01-11T16:58:37.271Z,100298.95
2023-01-11T17:01:13.737Z,100294.16
2023-01-11T17:03:51.297Z,100295.69
2023-01-11T17:06:25.144Z,100291.79
2023-01-11T17:08:56.452Z,100287.52
2023-01-11T17:11:46.710Z,100290.07
2023-01-11T17:14:28.165Z,100286.46
2023-01-11T17:17:02.879Z,100286.45
2023-01-11T17:19:34.674Z,100289.36
2023-01-11T17:22:07.490Z,100291.92
2023-01-11T17:24:42.032Z,100293.61
2023-01-11T17:27:22.728Z,100298.22
2023-01-11T17:29:55.098Z,100298.04
2023-01-11T17:32:36.900Z,100294.96
2023-01-11T17:35:14.761Z,100299.06
2023-01-11T17:37:48.400Z,100299.56
2023-01-11T17:40:30.295Z,100300.23
2023-01-11T17:43:38.790Z,100309.64
2023-01-11T17:46:08.360Z,100310.67
2023-01-11T17:48:36.220Z,100311.16
2023-01-11T17:51:05.896Z,100309.60
2023-01-11T17:53:36.185Z,100304.10
2023-01-11T17:56:07.440Z,100294.82
2023-01-11T17:58:37.139Z,100286.95
2023-01-11T18:01:05.279Z,100284.60
2023-01-11T18:03:58.040Z,100285.32
2023-01-11T18:06:35.771Z,100286.52
2023-01-11T18:09:06.874Z,100287.02
2023-01-11T18:11:39.195Z,100285.81
2023-01-11T18:14:24.155Z,100281.36
2023-01-11T18:17:00.220Z,100286.15
2023-01-11T18:19:31.765Z,100281.73
2023-01-11T18:21:59.781Z,100278.66
2023-01-11T18:24:32.193Z,100272.15
2023-01-11T18:27:26.135Z,100266.16
2023-01-11T18:29:55.927Z,100257.94
2023-01-11T18:32:25.097Z,100257.60
2023-01-11T18:34:55.036Z,100258.98
2023-01-11T18:37:23.016Z,100255.58
2023-01-11T18:39:52.480Z,100249.30
2023-01-11T18:42:24.815Z,100249.33
2023-01-11T18:44:52.819Z,100250.41
2023-01-11T18:47:23.391Z,100247.70
2023-01-11T18:49:52.770Z,100235.91
2023-01-11T18:52:24.768Z,100228.27
2023-01-11T18:54:53.094Z,100229.52
2023-01-11T18:57:22.820Z,100222.90
2023-01-11T18:59:54.774Z,100220.23
2023-01-11T19:02:34.701Z,100213.38
2023-01-11T19:05:02.684Z,100211.89
2023-01-11T19:07:30.826Z,100210.89
2023-01-11T19:09:59.500Z,100215.36
2023-01-11T19:12:27.475Z,100215.73
2023-01-11T19:14:55.431Z,100216.59
2023-01-11T19:17:23.589Z,100218.83
2023-01-11T19:19:51.438Z,100217.83
2023-01-11T19:22:21.948Z,100219.20
2023-01-11T19:24:52.507Z,100215.80
2023-01-11T19:27:20.885Z,100214.80
2023-01-11T19:29:48.935Z,100211.39
2023-01-11T19:32:18.634Z,100211.23
2023-01-11T19:34:46.475Z,100210.56
2023-01-11T19:37:14.391Z,100209.38
2023-01-11T19:39:43.680Z,100209.38
2023-01-11T19:42:11.876Z,100210.60
2023-01-11T19:44:40.219Z,100217.42
2023-01-11T19:47:13.172Z,100216.92
2023-01-11T19:49:43.183Z,100220.35
2023-01-11T19:52:13.768Z,100221.72
2023-01-11T19:54:43.290Z,100222.92
2023-01-11T19:57:14.424Z,100226.35
2023-01-11T19:59:42.560Z,100223.27
2023-01-11T20:02:16.259Z,100217.48
2023-01-11T20:04:44.532Z,100214.75
2023-01-11T20:07:13.759Z,100213.73
2023-01-11T20:09:41.936Z,100214.23
2023-01-11T20:12:12.441Z,100215.76
2023-01-11T20:14:40.822Z,100218.33
2023-01-11T20:17:09.072Z,100215.75
2023-01-11T20:19:37.009Z,100212.84
2023-01-11T20:22:05.133Z,100214.39
2023-01-11T20:24:33.141Z,100206.70
2023-01-11T20:27:02.921Z,100209.07
2023-01-11T20:29:31.095Z,100204.96
2023-01-11T20:32:15.390Z,100202.21
2023-01-11T20:34:46.925Z,100198.63
2023-01-11T20:37:15.488Z,100196.08
2023-01-11T20:39:43.424Z,100194.02
2023-01-11T20:42:12.639Z,100189.74
2023-01-11T20:44:40.693Z,100187.00
2023-01-11T20:47:08.496Z,100184.26
2023-01-11T20:49:36.550Z,100181.86
2023-01-11T20:52:05.242Z,100179.64
2023-01-11T20:54:33.431Z,100176.04
2023-01-11T20:57:05.698Z,100179.80
2023-01-11T20:59:34.966Z,100186.79
2023-01-11T21:02:03.047Z,100179.09
2023-01-11T21:04:30.903Z,100178.91
2023-01-11T21:06:59.297Z,100175.45
2023-01-11T21:09:27.368Z,100169.98
2023-01-11T21:11:55.445Z,100166.38
2023-01-11T21:14:23.562Z,100162.08
2023-01-11T21:16:54.901Z,100163.05
2023-01-11T21:19:23.127Z,100162.01
2023-01-11T21:21:51.170Z,100161.66
2023-01-11T21:24:19.204Z,100161.79
2023-01-11T21:26:48.374Z,100164.69
2023-01-11T21:29:16.541Z,100162.45
2023-01-11T21:31:44.659Z,100162.75
2023-01-11T21:34:13.834Z,100156.39
2023-01-11T21:36:43.949Z,100155.51
2023-01-11T21:39:16.566Z,100160.43
2023-01-11T21:41:58.167Z,100159.20
2023-01-11T21:44:32.419Z,100160.20
2023-01-11T21:47:02.745Z,100159.32
2023-01-11T21:49:31.463Z,100157.27
2023-01-11T21:51:59.704Z,100159.48
2023-01-11T21:54:27.765Z,100163.91
2023-01-11T21:56:55.684Z,100157.73
2023-01-11T21:59:24.752Z,100156.33
2023-01-11T22:01:53.075Z,100157.35
2023-01-11T22:04:21.724Z,100155.77
2023-01-11T22:06:54.533Z,100154.57
2023-01-11T22:09:25.825Z,100160.02
2023-01-11T22:11:54.637Z,100159.50
2023-01-11T22:14:22.591Z,100156.59
2023-01-11T22:16:51.082Z,100159.65
2023-01-11T22:19:19.891Z,100156.55
2023-01-11T22:21:47.831Z,100152.93
2023-01-11T22:24:16.089Z,100156.99
2023-01-11T22:26:44.152Z,100151.15
2023-01-11T22:29:12.414Z,100144.29
2023-01-11T22:31:46.892Z,100145.30
2023-01-11T22:34:15.435Z,100138.60
2023-01-11T22:36:44.977Z,100139.65
2023-01-11T22:39:15.426Z,100139.29
2023-01-11T22:41:45.724Z,100134.83
2023-01-11T22:44:15.111Z,100131.21
2023-01-11T22:46:44.205Z,100133.94
2023-01-11T22:49:13.293Z,100136.33
2023-01-11T22:51:43.014Z,100141.63
2023-01-11T22:54:11.936Z,100139.21
2023-01-11T22:56:42.978Z,100144.85
2023-01-11T22:59:11.258Z,100150.45
2023-01-11T23:01:41.232Z,100151.80
2023-01-11T23:04:12.572Z,100153.48
2023-01-11T23:06:42.172Z,100148.83
2023-01-11T23:09:16.007Z,100152.25
2023-01-11T23:12:04.556Z,100148.31
2023-01-11T23:14:33.325Z,100154.46
2023-01-11T23:17:06.650Z,100156.34
2023-01-11T23:19:45.745Z,100159.41
2023-01-11T23:22:15.759Z,100161.63
2023-01-11T23:24:43.740Z,100155.46
2023-01-11T23:27:11.699Z,100155.80
2023-01-11T23:29:39.690Z,100150.15
2023-01-11T23:32:08.488Z,100151.01
2023-01-11T23:34:36.429Z,100148.60
2023-01-11T23:37:05.245Z,100141.92
2023-01-11T23:39:32.989Z,100138.69
2023-01-11T23:42:19.597Z,100139.54
2023-01-11T23:44:47.425Z,100138.52
2023-01-11T23:47:21.131Z,100143.33
2023-01-11T23:49:51.403Z,100140.95
2023-01-11T23:52:21.348Z,100146.14
2023-01-11T23:54:49.409Z,100145.29
2023-01-11T23:57:18.965Z,100146.82
2023-01-11T23:59:47.546Z,100143.90
